Time;durP1;ratioP1;P1;durP2;ratioP2;P2;SDS_P1;SDS_P2;PMS_P1;PMS_P2;Temp;Humidity;BMP_temperature;BMP_pressure;BME280_temperature;BME280_humidity;BME280_pressure;Samples;Min_cycle;Max_cycle;Signal;HPM_P1;HPM_P2
2023/05/14 00:00:48;;;;;;;17.75;9.23;;;8.60;83.70;;;;;;4973609;28;20430;-82
2023/05/14 00:03:14;;;;;;;22.02;9.88;;;8.60;82.70;;;;;;4975385;28;20105;-82
2023/05/14 00:05:41;;;;;;;19.17;10.15;;;8.50;83.60;;;;;;4978780;28;20057;-82
2023/05/14 00:08:08;;;;;;;26.73;10.15;;;8.50;84.10;;;;;;4981305;28;20055;-82
2023/05/14 00:10:35;;;;;;;15.52;10.15;;;8.50;83.60;;;;;;4971316;28;20441;-82
2023/05/14 00:13:02;;;;;;;23.38;10.90;;;8.50;84.10;;;;;;4976745;28;20062;-82
2023/05/14 00:15:29;;;;;;;22.15;11.02;;;8.50;83.90;;;;;;4975711;28;20054;-82
2023/05/14 00:17:59;;;;;;;27.98;10.27;;;8.40;83.80;;;;;;4983570;28;20050;-82
2023/05/14 00:20:26;;;;;;;18.30;10.18;;;8.30;84.40;;;;;;4976605;28;20050;-82
2023/05/14 00:22:53;;;;;;;16.92;9.75;;;8.30;84.90;;;;;;4972831;28;20083;-82
2023/05/14 00:25:20;;;;;;;17.00;9.93;;;8.30;84.80;;;;;;4974966;28;20053;-82
2023/05/14 00:27:47;;;;;;;15.68;9.70;;;8.20;85.30;;;;;;4976122;28;20051;-81
2023/05/14 00:30:13;;;;;;;17.17;10.43;;;8.20;85.10;;;;;;4981433;28;20449;-81
2023/05/14 00:32:40;;;;;;;17.92;10.02;;;8.10;85.50;;;;;;4978916;28;20061;-82
2023/05/14 00:35:08;;;;;;;15.48;9.77;;;8.10;85.70;;;;;;4984823;28;20177;-82
2023/05/14 00:37:35;;;;;;;19.63;9.70;;;8.10;85.60;;;;;;4985109;28;20050;-82
2023/05/14 00:40:02;;;;;;;15.73;9.95;;;8.10;85.50;;;;;;4981420;28;20481;-82
2023/05/14 00:42:29;;;;;;;27.40;11.82;;;8.00;85.50;;;;;;4983918;28;20046;-82
2023/05/14 00:44:56;;;;;;;26.88;12.18;;;8.00;85.70;;;;;;4977060;28;20042;-82
2023/05/14 00:47:23;;;;;;;27.48;12.32;;;7.90;85.50;;;;;;4979979;28;20181;-82
2023/05/14 00:49:50;;;;;;;27.20;12.45;;;7.80;86.00;;;;;;4979737;28;20050;-81
2023/05/14 00:52:17;;;;;;;27.13;11.88;;;7.80;86.10;;;;;;4982177;28;20399;-82
2023/05/14 00:54:46;;;;;;;18.15;10.70;;;7.70;86.20;;;;;;4979527;28;20054;-82
2023/05/14 00:57:13;;;;;;;23.20;11.43;;;7.70;87.20;;;;;;4982029;28;20058;-82
2023/05/14 00:59:41;;;;;;;26.40;12.70;;;7.70;86.50;;;;;;4974914;28;20050;-81
2023/05/14 01:02:08;;;;;;;24.80;12.27;;;7.70;86.70;;;;;;4984782;28;20518;-82
2023/05/14 01:04:36;;;;;;;22.00;11.32;;;7.70;86.80;;;;;;4976169;28;20053;-82
2023/05/14 01:07:06;;;;;;;24.40;11.50;;;7.60;86.80;;;;;;4965388;28;20050;-82
2023/05/14 01:09:49;;;;;;;18.50;11.13;;;7.60;86.80;;;;;;4973173;28;20177;-82
2023/05/14 01:12:36;;;;;;;26.83;11.65;;;7.50;86.80;;;;;;4977439;28;20050;-82
2023/05/14 01:15:09;;;;;;;34.33;13.65;;;7.40;86.70;;;;;;4970418;28;20419;-82
2023/05/14 01:17:47;;;;;;;23.13;12.35;;;7.40;87.40;;;;;;4980984;28;20373;-82
2023/05/14 01:20:15;;;;;;;27.38;14.50;;;7.40;86.60;;;;;;4973123;28;20050;-82
2023/05/14 01:22:42;;;;;;;37.58;15.45;;;7.30;87.70;;;;;;4978777;28;20299;-82
2023/05/14 01:25:09;;;;;;;26.02;14.02;;;7.30;88.00;;;;;;4979170;28;20042;-82
2023/05/14 01:28:09;;;;;;;23.63;13.23;;;7.30;87.50;;;;;;4970679;28;20051;-82
2023/05/14 01:30:39;;;;;;;32.35;12.82;;;7.30;87.70;;;;;;4986170;28;20042;-82
2023/05/14 01:33:10;;;;;;;20.52;11.80;;;7.20;87.90;;;;;;4977518;28;20042;-82
2023/05/14 01:35:37;;;;;;;17.73;10.73;;;7.20;87.80;;;;;;4985536;28;20496;-82
2023/05/14 01:38:08;;;;;;;19.00;10.88;;;7.10;87.80;;;;;;4975439;28;20046;-82
2023/05/14 01:40:35;;;;;;;18.00;10.55;;;7.10;87.90;;;;;;4988734;28;20065;-82
2023/05/14 01:43:03;;;;;;;18.50;10.13;;;7.10;88.10;;;;;;4977046;28;20058;-82
2023/05/14 01:45:33;;;;;;;20.98;11.23;;;7.00;88.50;;;;;;4976306;28;20074;-81
2023/05/14 01:48:00;;;;;;;20.85;11.00;;;6.90;88.80;;;;;;4979500;28;20058;-82
2023/05/14 01:50:27;;;;;;;18.15;11.05;;;6.80;89.10;;;;;;4985096;28;20046;-82
2023/05/14 01:52:55;;;;;;;20.85;9.52;;;6.80;89.10;;;;;;4987866;28;20180;-82
2023/05/14 01:55:25;;;;;;;20.42;10.80;;;6.70;89.30;;;;;;4979702;28;20136;-82
2023/05/14 01:57:52;;;;;;;19.65;10.93;;;6.70;89.80;;;;;;4997648;23;20062;-82
2023/05/14 02:00:22;;;;;;;18.58;11.57;;;6.60;89.70;;;;;;5007263;28;20741;-81
2023/05/14 02:02:49;;;;;;;21.38;10.95;;;6.50;90.30;;;;;;5008993;28;20077;-82
2023/05/14 02:05:16;;;;;;;21.55;11.63;;;6.50;90.40;;;;;;5010029;28;20092;-82
2023/05/14 02:07:43;;;;;;;24.25;11.98;;;6.50;90.50;;;;;;4999978;28;20124;-81
2023/05/14 02:10:10;;;;;;;25.33;12.20;;;6.50;90.70;;;;;;4997897;28;20057;-81
2023/05/14 02:12:37;;;;;;;20.63;11.88;;;6.60;90.80;;;;;;5006069;28;20059;-81
2023/05/14 02:15:04;;;;;;;19.75;11.05;;;6.60;90.80;;;;;;4993939;28;20054;-82
2023/05/14 02:17:31;;;;;;;22.70;12.20;;;6.50;91.30;;;;;;5002045;28;20046;-82
2023/05/14 02:19:58;;;;;;;25.75;12.20;;;6.50;91.10;;;;;;4995295;28;20557;-81
2023/05/14 02:22:25;;;;;;;22.05;11.88;;;6.50;91.20;;;;;;4993008;28;20482;-82
2023/05/14 02:28:20;;;;;;;22.95;11.52;;;6.50;91.20;;;;;;5046706;23;20060;-71
2023/05/14 02:30:47;;;;;;;20.40;12.55;;;6.50;91.10;;;;;;5044068;28;20052;-71
2023/05/14 02:33:14;;;;;;;22.40;11.55;;;6.40;91.60;;;;;;5054877;28;20433;-71
2023/05/14 02:35:41;;;;;;;21.50;12.30;;;6.40;91.20;;;;;;5054850;28;20098;-71
2023/05/14 02:38:08;;;;;;;22.30;13.20;;;6.50;92.20;;;;;;5038588;28;20060;-71
2023/05/14 02:40:36;;;;;;;29.55;13.75;;;6.50;91.60;;;;;;5075327;28;20575;-71
2023/05/14 02:43:03;;;;;;;23.83;11.98;;;6.40;92.00;;;;;;5052514;28;20044;-72
2023/05/14 02:45:29;;;;;;;24.33;13.27;;;6.40;92.10;;;;;;5068607;28;20075;-71
2023/05/14 02:47:56;;;;;;;23.40;12.07;;;6.30;92.60;;;;;;5047130;28;20057;-71
2023/05/14 02:50:23;;;;;;;20.60;11.65;;;6.30;92.60;;;;;;5057736;28;20052;-71
2023/05/14 02:52:51;;;;;;;18.52;12.10;;;6.30;93.10;;;;;;5036419;28;20061;-72
2023/05/14 02:55:17;;;;;;;25.92;13.43;;;6.20;92.90;;;;;;5056970;28;20056;-71
2023/05/14 02:57:45;;;;;;;27.48;12.55;;;6.20;93.40;;;;;;5050875;28;20083;-72
2023/05/14 03:00:12;;;;;;;21.17;12.15;;;6.20;93.40;;;;;;5051323;28;20048;-72
2023/05/14 03:02:39;;;;;;;19.83;11.88;;;6.20;93.20;;;;;;5056307;28;20092;-72
2023/05/14 03:05:08;;;;;;;22.52;11.75;;;6.20;93.20;;;;;;5059069;28;20505;-71
2023/05/14 03:07:34;;;;;;;22.17;11.98;;;6.20;92.40;;;;;;5053427;28;20048;-72
2023/05/14 03:10:01;;;;;;;21.50;12.27;;;6.20;92.70;;;;;;5070500;28;20047;-71
2023/05/14 03:12:28;;;;;;;26.08;12.18;;;6.30;92.80;;;;;;5064746;28;20059;-71
2023/05/14 03:14:55;;;;;;;24.95;11.95;;;6.30;92.80;;;;;;5066022;28;20056;-71
2023/05/14 03:17:22;;;;;;;21.90;12.20;;;6.20;92.20;;;;;;5055789;28;20159;-71
2023/05/14 03:19:49;;;;;;;22.58;12.05;;;6.30;92.50;;;;;;5038323;28;20101;-71
2023/05/14 03:22:16;;;;;;;22.02;11.90;;;6.30;92.20;;;;;;5044259;28;20052;-71
2023/05/14 03:24:42;;;;;;;27.83;12.18;;;6.30;92.60;;;;;;5068634;28;20067;-71
2023/05/14 03:27:09;;;;;;;23.20;11.57;;;6.30;92.00;;;;;;5067536;28;20106;-71
2023/05/14 03:29:36;;;;;;;24.75;12.30;;;6.30;92.10;;;;;;5061228;28;20048;-71
2023/05/14 03:32:03;;;;;;;22.92;12.48;;;6.30;92.40;;;;;;5038132;28;20060;-71
2023/05/14 03:34:30;;;;;;;25.92;12.63;;;6.30;92.60;;;;;;5056356;28;20044;-71
2023/05/14 03:36:57;;;;;;;19.63;10.63;;;6.30;91.90;;;;;;5053185;28;20063;-71
2023/05/14 03:39:23;;;;;;;24.83;12.73;;;6.30;91.40;;;;;;5036667;28;20041;-71
2023/05/14 03:41:50;;;;;;;24.88;12.10;;;6.30;91.50;;;;;;5076088;28;20048;-72
2023/05/14 03:44:17;;;;;;;25.42;12.13;;;6.30;91.70;;;;;;5043876;28;20052;-71
2023/05/14 03:46:44;;;;;;;20.75;12.35;;;6.30;91.70;;;;;;5056361;28;20061;-71
2023/05/14 03:49:11;;;;;;;22.25;12.18;;;6.30;92.30;;;;;;5052672;28;20044;-72
2023/05/14 03:51:38;;;;;;;22.88;12.48;;;6.30;92.60;;;;;;5044442;28;20053;-72
2023/05/14 03:54:05;;;;;;;32.38;13.70;;;6.30;92.90;;;;;;5052872;28;20696;-71
2023/05/14 03:56:32;;;;;;;26.52;13.43;;;6.30;93.00;;;;;;5055072;28;20599;-71
2023/05/14 03:58:59;;;;;;;23.38;12.65;;;6.30;93.30;;;;;;5055501;28;20055;-71
2023/05/14 04:01:26;;;;;;;24.38;13.57;;;6.30;93.30;;;;;;5066398;28;20083;-71
2023/05/14 04:07:11;;;;;;;24.50;13.75;;;6.40;93.80;;;;;;4963810;28;20432;-72
2023/05/14 04:09:38;;;;;;;26.40;13.90;;;6.40;94.20;;;;;;4958304;28;20076;-71
2023/05/14 04:12:05;;;;;;;28.58;14.57;;;6.50;94.30;;;;;;4964190;28;20633;-72
2023/05/14 04:14:32;;;;;;;27.23;13.07;;;6.60;94.20;;;;;;4952621;28;20066;-71
2023/05/14 04:16:59;;;;;;;27.05;14.52;;;6.70;94.70;;;;;;4947410;28;20141;-72
2023/05/14 04:19:26;;;;;;;25.98;13.60;;;6.80;94.40;;;;;;4956593;28;20126;-71
2023/05/14 04:21:53;;;;;;;30.80;14.38;;;6.90;94.40;;;;;;4955136;28;20489;-71
2023/05/14 04:24:19;;;;;;;24.85;14.27;;;7.00;94.20;;;;;;4958309;28;20050;-72
2023/05/14 04:26:46;;;;;;;26.55;14.27;;;7.20;94.50;;;;;;4959386;28;20073;-71
2023/05/14 04:29:13;;;;;;;28.10;15.00;;;7.30;93.90;;;;;;4958675;28;20043;-71
2023/05/14 04:31:41;;;;;;;26.45;14.38;;;7.40;93.60;;;;;;4965669;28;20063;-72
2023/05/14 04:34:08;;;;;;;31.10;16.15;;;7.60;93.00;;;;;;4945887;28;20058;-72
2023/05/14 04:36:35;;;;;;;28.90;15.18;;;7.80;93.20;;;;;;4947435;28;20062;-72
2023/05/14 04:39:02;;;;;;;26.33;14.80;;;7.90;92.50;;;;;;4953655;28;20490;-73
2023/05/14 04:41:29;;;;;;;25.65;14.88;;;8.10;92.10;;;;;;4961183;28;20049;-72
2023/05/14 04:43:57;;;;;;;25.45;14.75;;;8.20;91.10;;;;;;4958101;28;20070;-72
2023/05/14 04:46:24;;;;;;;23.05;14.85;;;8.40;91.30;;;;;;4953875;28;20405;-72
2023/05/14 04:48:51;;;;;;;31.08;15.55;;;8.50;90.30;;;;;;4963863;28;20046;-71
2023/05/14 04:51:18;;;;;;;31.77;15.15;;;8.70;93.80;;;;;;4937302;28;20074;-73
2023/05/14 04:53:45;;;;;;;24.00;15.02;;;8.90;93.50;;;;;;4953947;28;20055;-73
2023/05/14 04:56:12;;;;;;;35.38;14.85;;;9.00;91.50;;;;;;4965374;28;20079;-73
2023/05/14 04:58:39;;;;;;;29.00;14.18;;;9.10;92.60;;;;;;4957199;28;20047;-74
2023/05/14 05:01:06;;;;;;;28.75;14.10;;;9.30;91.80;;;;;;4961381;28;20074;-73
2023/05/14 05:03:33;;;;;;;23.58;14.95;;;9.50;90.80;;;;;;4958887;28;20054;-73
2023/05/14 05:06:00;;;;;;;25.50;14.60;;;9.80;89.00;;;;;;4956186;28;20559;-73
2023/05/14 05:08:27;;;;;;;74.18;16.25;;;9.90;87.40;;;;;;4952192;28;20051;-73
2023/05/14 05:10:53;;;;;;;27.67;13.57;;;10.10;88.70;;;;;;4958342;28;20051;-73
2023/05/14 05:13:20;;;;;;;23.27;12.82;;;10.30;87.90;;;;;;4962883;28;20058;-73
2023/05/14 05:15:47;;;;;;;20.33;12.60;;;10.50;86.70;;;;;;4961670;28;20050;-73
2023/05/14 05:18:14;;;;;;;20.40;13.07;;;10.70;86.90;;;;;;4956555;28;20057;-73
2023/05/14 05:20:41;;;;;;;23.42;11.95;;;10.80;84.40;;;;;;4945481;28;20061;-73
2023/05/14 05:23:07;;;;;;;20.90;12.38;;;10.90;85.50;;;;;;4953785;28;20043;-74
2023/05/14 05:25:35;;;;;;;26.40;11.90;;;11.10;85.60;;;;;;4951322;28;20047;-74
2023/05/14 05:28:02;;;;;;;20.98;11.93;;;11.20;85.60;;;;;;4958237;28;20050;-73
2023/05/14 05:30:29;;;;;;;20.88;11.98;;;11.30;84.20;;;;;;4960881;28;20089;-83
2023/05/14 05:32:56;;;;;;;22.88;12.15;;;11.40;82.20;;;;;;4970300;28;20117;-82
2023/05/14 05:35:23;;;;;;;15.40;10.68;;;11.40;82.10;;;;;;4961413;28;20050;-81
2023/05/14 05:37:50;;;;;;;16.73;11.40;;;11.50;80.90;;;;;;4992807;23;20069;-81
2023/05/14 05:40:17;;;;;;;18.70;11.38;;;11.70;82.20;;;;;;5023928;28;20041;-81
2023/05/14 05:42:44;;;;;;;18.00;11.07;;;11.70;81.30;;;;;;5029258;28;20596;-81
2023/05/14 05:45:11;;;;;;;23.20;12.25;;;11.70;81.90;;;;;;5028981;28;20060;-81
2023/05/14 05:47:38;;;;;;;21.42;11.82;;;11.90;83.30;;;;;;5017491;28;20073;-81
2023/05/14 05:50:06;;;;;;;18.10;11.38;;;11.90;83.60;;;;;;4996404;28;20046;-81
2023/05/14 05:52:33;;;;;;;22.27;11.65;;;12.00;84.60;;;;;;5024191;28;20490;-80
2023/05/14 05:54:59;;;;;;;20.65;11.75;;;12.10;84.60;;;;;;5001512;28;21655;-80
2023/05/14 05:57:26;;;;;;;18.92;11.77;;;12.20;84.40;;;;;;5020257;28;20054;-80
2023/05/14 05:59:53;;;;;;;18.65;10.98;;;12.40;82.30;;;;;;5002916;28;20041;-79
2023/05/14 06:02:20;;;;;;;21.15;10.75;;;12.50;81.00;;;;;;5009659;28;20049;-78
2023/05/14 06:07:25;;;;;;;18.17;11.15;;;12.80;82.40;;;;;;4958769;28;20047;-79
2023/05/14 06:09:52;;;;;;;15.02;9.98;;;13.10;81.30;;;;;;4963981;28;20051;-79
2023/05/14 06:12:20;;;;;;;16.13;10.63;;;13.40;80.00;;;;;;4960592;28;20051;-79
2023/05/14 06:14:47;;;;;;;22.52;9.40;;;13.70;81.90;;;;;;4944575;28;20055;-79
2023/05/14 06:17:32;;;;;;;14.18;9.23;;;14.10;77.10;;;;;;4951225;28;20785;-76
2023/05/14 06:19:59;;;;;;;18.15;9.38;;;14.50;75.80;;;;;;4960108;28;20050;-76
2023/05/14 06:22:26;;;;;;;15.32;9.13;;;15.00;75.70;;;;;;4967977;28;20042;-79
2023/05/14 06:24:53;;;;;;;13.35;9.57;;;15.30;72.80;;;;;;4963965;28;20071;-79
2023/05/14 06:27:19;;;;;;;15.80;8.45;;;15.80;74.50;;;;;;5150504;23;20049;-72
2023/05/14 06:29:46;;;;;;;15.23;7.13;;;16.10;70.00;;;;;;5020397;28;20057;-72
2023/05/14 06:32:16;;;;;;;18.13;7.55;;;16.20;67.60;;;;;;5040214;28;20591;-72
2023/05/14 06:34:43;;;;;;;9.77;7.38;;;16.50;66.10;;;;;;5037776;28;20048;-73
2023/05/14 06:37:11;;;;;;;12.15;7.78;;;16.80;69.60;;;;;;5015910;28;20054;-73
2023/05/14 06:39:38;;;;;;;15.02;7.30;;;17.30;67.40;;;;;;5038722;28;20048;-72
2023/05/14 06:45:12;;;;;;;13.73;8.02;;;17.30;66.70;;;;;;5161980;23;20057;-80
2023/05/14 06:48:26;;;;;;;9.90;7.05;;;17.20;63.10;;;;;;5020753;28;20044;-80
2023/05/14 06:50:53;;;;;;;11.38;6.88;;;17.20;66.50;;;;;;5024025;28;20521;-79
2023/05/14 06:55:55;;;;;;;16.58;7.13;;;18.00;64.20;;;;;;5016611;28;20056;-71
2023/05/14 06:58:21;;;;;;;10.05;6.40;;;18.40;62.00;;;;;;5022357;28;20054;-76
2023/05/14 07:00:48;;;;;;;12.07;6.70;;;19.00;60.80;;;;;;5022474;28;20046;-80
2023/05/14 07:03:15;;;;;;;13.73;5.65;;;19.40;60.90;;;;;;5023047;28;20045;-79
2023/05/14 07:05:43;;;;;;;9.43;5.10;;;19.60;59.60;;;;;;5013320;22;20053;-76
2023/05/14 07:08:10;;;;;;;9.00;5.35;;;19.90;59.70;;;;;;5002771;28;20057;-76
2023/05/14 07:10:38;;;;;;;8.73;5.18;;;20.00;56.80;;;;;;5019624;28;20144;-76
2023/05/14 07:13:05;;;;;;;10.73;6.10;;;20.50;56.00;;;;;;4996871;28;20046;-74
2023/05/14 07:15:32;;;;;;;8.77;5.90;;;20.90;56.00;;;;;;4993699;28;20056;-75
2023/05/14 07:17:58;;;;;;;8.50;5.55;;;21.30;55.70;;;;;;4999290;28;20453;-74
2023/05/14 07:20:25;;;;;;;14.88;5.70;;;21.60;54.30;;;;;;5014403;28;20042;-75
2023/05/14 07:22:53;;;;;;;12.45;5.22;;;21.80;52.70;;;;;;5017793;28;20140;-79
2023/05/14 07:25:19;;;;;;;10.23;4.78;;;21.80;52.50;;;;;;5018749;28;20046;-74
2023/05/14 07:27:46;;;;;;;9.07;4.65;;;21.70;54.20;;;;;;5017951;28;20053;-74
2023/05/14 07:30:14;;;;;;;11.52;4.50;;;21.70;53.10;;;;;;5012531;28;21218;-73
2023/05/14 07:32:41;;;;;;;12.35;4.07;;;22.10;51.40;;;;;;4995865;28;20053;-73
2023/05/14 07:35:08;;;;;;;8.20;3.90;;;22.30;48.60;;;;;;5015541;28;20108;-73
2023/05/14 07:37:35;;;;;;;7.82;4.25;;;22.70;48.20;;;;;;4996005;28;20549;-73
2023/05/14 07:40:02;;;;;;;9.43;4.25;;;22.90;49.00;;;;;;5018664;28;20041;-73
2023/05/14 07:42:29;;;;;;;8.60;4.15;;;22.90;49.30;;;;;;5020786;28;20680;-73
2023/05/14 07:45:03;;;;;;;8.95;3.80;;;23.00;48.40;;;;;;4999387;28;20746;-73
2023/05/14 07:47:30;;;;;;;7.97;3.75;;;23.30;48.30;;;;;;5005610;28;20108;-72
2023/05/14 07:49:57;;;;;;;9.50;3.40;;;23.20;45.60;;;;;;5022503;28;20419;-73
2023/05/14 07:52:24;;;;;;;11.82;4.35;;;23.40;45.10;;;;;;5005534;28;20053;-73
2023/05/14 07:54:51;;;;;;;11.80;3.60;;;23.20;44.40;;;;;;5023784;28;20083;-73
2023/05/14 07:57:19;;;;;;;9.88;2.97;;;23.30;45.00;;;;;;5005781;28;20073;-73
2023/05/14 07:59:47;;;;;;;4.60;2.88;;;23.80;43.10;;;;;;5001107;28;20482;-72
2023/05/14 08:02:15;;;;;;;9.30;4.00;;;23.90;41.80;;;;;;4999415;28;20085;-73
2023/05/14 08:04:42;;;;;;;18.15;4.03;;;23.20;42.50;;;;;;4992812;28;20819;-73
2023/05/14 08:07:10;;;;;;;11.25;3.58;;;22.50;43.20;;;;;;5001408;28;20052;-73
2023/05/14 08:09:37;;;;;;;5.03;3.38;;;22.20;42.90;;;;;;5025776;28;20045;-73
2023/05/14 08:12:04;;;;;;;4.47;3.35;;;21.80;43.20;;;;;;5008001;28;20053;-73
2023/05/14 08:14:31;;;;;;;6.13;3.30;;;21.50;44.90;;;;;;5025038;28;21956;-73
2023/05/14 08:16:58;;;;;;;19.20;3.78;;;21.80;46.70;;;;;;5016374;28;20049;-73
2023/05/14 08:19:26;;;;;;;6.28;3.17;;;21.60;46.90;;;;;;5018474;28;20049;-73
2023/05/14 08:21:53;;;;;;;5.88;3.50;;;21.70;47.50;;;;;;5000317;28;20049;-73
2023/05/14 08:24:20;;;;;;;10.40;4.13;;;22.10;44.70;;;;;;4989592;28;20054;-73
2023/05/14 08:26:47;;;;;;;6.45;3.30;;;21.90;43.00;;;;;;5016411;28;20233;-73
2023/05/14 08:29:14;;;;;;;6.53;3.45;;;21.90;44.90;;;;;;5006760;28;20046;-72
2023/05/14 08:31:42;;;;;;;4.97;3.17;;;22.40;46.30;;;;;;5006383;28;20057;-73
2023/05/14 08:34:09;;;;;;;8.80;4.10;;;22.20;46.00;;;;;;5010113;28;20050;-73
2023/05/14 08:36:37;;;;;;;6.60;3.70;;;22.40;44.40;;;;;;4998470;28;20049;-73
2023/05/14 08:39:06;;;;;;;4.80;3.78;;;22.50;43.00;;;;;;4990808;28;20050;-73
2023/05/14 08:41:33;;;;;;;7.15;3.35;;;22.70;44.40;;;;;;5012490;28;20063;-73
2023/05/14 08:44:00;;;;;;;4.75;3.10;;;23.20;43.30;;;;;;5007697;28;20516;-73
2023/05/14 08:46:29;;;;;;;5.10;3.13;;;23.70;41.20;;;;;;5019509;28;20121;-73
2023/05/14 08:49:07;;;;;;;6.55;3.00;;;24.10;39.90;;;;;;5008128;28;20049;-73
2023/05/14 08:51:34;;;;;;;13.55;3.40;;;24.80;40.70;;;;;;5023941;28;20846;-73
2023/05/14 08:54:04;;;;;;;4.80;2.85;;;25.10;40.60;;;;;;5006070;28;20072;-73
2023/05/14 08:56:32;;;;;;;5.20;3.22;;;25.80;39.60;;;;;;4997625;28;20072;-73
2023/05/14 08:58:59;;;;;;;4.65;3.03;;;26.00;37.70;;;;;;5025236;28;20069;-73
2023/05/14 09:01:27;;;;;;;7.32;2.97;;;26.10;41.30;;;;;;5025044;28;20041;-73
2023/05/14 09:03:55;;;;;;;6.38;2.92;;;26.70;37.80;;;;;;5025075;28;20756;-73
2023/05/14 09:06:23;;;;;;;5.90;2.95;;;27.60;36.10;;;;;;5016192;28;20087;-73
2023/05/14 09:08:50;;;;;;;6.38;3.05;;;28.70;33.80;;;;;;5006978;28;20490;-73
2023/05/14 09:11:17;;;;;;;6.72;3.00;;;29.40;33.80;;;;;;5010690;28;20060;-73
2023/05/14 09:13:43;;;;;;;5.40;2.53;;;29.80;33.10;;;;;;5007774;28;20054;-73
2023/05/14 09:16:10;;;;;;;5.65;2.60;;;29.60;33.50;;;;;;5011475;28;20049;-73
2023/05/14 09:18:41;;;;;;;9.52;4.75;;;30.00;34.20;;;;;;5008420;28;20065;-73
2023/05/14 09:21:08;;;;;;;7.53;2.60;;;29.00;33.80;;;;;;5015107;28;20532;-73
2023/05/14 09:23:41;;;;;;;13.65;3.08;;;29.50;34.80;;;;;;5022168;28;20045;-73
2023/05/14 09:26:07;;;;;;;8.98;2.50;;;30.50;31.10;;;;;;5016935;28;20049;-73
2023/05/14 09:28:34;;;;;;;8.50;2.75;;;30.00;32.20;;;;;;5006887;28;20055;-73
2023/05/14 09:31:01;;;;;;;11.48;2.80;;;31.20;31.70;;;;;;4990457;28;20502;-73
2023/05/14 09:33:28;;;;;;;7.70;3.08;;;30.70;31.20;;;;;;5013268;28;20065;-73
2023/05/14 09:35:59;;;;;;;11.50;2.80;;;30.90;32.80;;;;;;5017450;28;20049;-73
2023/05/14 09:38:32;;;;;;;5.30;3.00;;;31.50;30.90;;;;;;5002432;28;20054;-73
2023/05/14 09:41:00;;;;;;;8.63;2.92;;;31.10;31.40;;;;;;5007022;28;20051;-74
2023/05/14 09:43:27;;;;;;;4.47;2.85;;;31.10;31.00;;;;;;5011858;28;20049;-74
2023/05/14 09:45:54;;;;;;;5.50;2.65;;;31.10;31.40;;;;;;5013843;28;20056;-74
2023/05/14 09:48:21;;;;;;;5.25;2.60;;;30.80;31.60;;;;;;5015527;28;20045;-73
2023/05/14 09:50:48;;;;;;;6.50;2.75;;;31.30;32.20;;;;;;4999656;28;20128;-74
2023/05/14 09:53:16;;;;;;;9.23;2.75;;;30.40;32.10;;;;;;5012130;28;20050;-74
2023/05/14 09:55:44;;;;;;;5.00;3.00;;;30.90;31.50;;;;;;5006967;28;20085;-74
2023/05/14 09:58:13;;;;;;;7.35;2.97;;;30.60;30.90;;;;;;5017878;28;20069;-73
2023/05/14 10:00:44;;;;;;;19.67;3.60;;;31.70;31.00;;;;;;5006203;28;20054;-74
2023/05/14 10:03:13;;;;;;;9.77;3.58;;;31.60;30.60;;;;;;5015053;28;20045;-73
2023/05/14 10:05:42;;;;;;;6.60;3.03;;;31.70;31.50;;;;;;5014137;28;20096;-73
2023/05/14 10:08:23;;;;;;;4.78;2.33;;;31.10;30.20;;;;;;4987298;28;20041;-73
2023/05/14 10:10:53;;;;;;;11.23;3.00;;;31.10;29.10;;;;;;4988973;28;20050;-73
2023/05/14 10:13:26;;;;;;;11.43;3.67;;;31.40;31.60;;;;;;5016024;28;20049;-73
2023/05/14 10:16:01;;;;;;;4.38;3.13;;;32.00;31.30;;;;;;5018443;28;20057;-73
2023/05/14 10:18:33;;;;;;;39.30;4.20;;;32.80;29.40;;;;;;5019926;28;20061;-74
2023/05/14 10:21:04;;;;;;;9.88;3.38;;;32.70;30.70;;;;;;5020214;28;20049;-73
2023/05/14 10:23:32;;;;;;;6.82;2.75;;;31.20;27.90;;;;;;4996727;28;20050;-73
2023/05/14 10:26:00;;;;;;;4.72;2.88;;;30.00;33.70;;;;;;5012963;28;20045;-73
2023/05/14 10:28:27;;;;;;;3.67;3.03;;;30.00;32.70;;;;;;4986992;28;20871;-73
2023/05/14 10:30:54;;;;;;;8.38;2.63;;;30.40;30.50;;;;;;4995119;28;20067;-72
2023/05/14 10:33:22;;;;;;;9.07;3.15;;;30.20;28.60;;;;;;5001819;28;20056;-72
2023/05/14 10:35:56;;;;;;;11.05;3.83;;;29.80;27.50;;;;;;5005834;28;20056;-73
2023/05/14 10:38:43;;;;;;;9.65;3.30;;;28.70;29.30;;;;;;5004741;28;20132;-73
2023/05/14 10:41:19;;;;;;;6.93;3.60;;;27.30;29.90;;;;;;5007331;28;20060;-73
2023/05/14 10:43:46;;;;;;;9.70;4.28;;;26.70;29.90;;;;;;5016488;28;20097;-73
2023/05/14 10:46:14;;;;;;;8.77;3.67;;;25.90;30.90;;;;;;5007642;28;20061;-76
2023/05/14 10:48:43;;;;;;;7.05;3.28;;;25.40;31.10;;;;;;5019635;28;20156;-76
2023/05/14 10:51:11;;;;;;;7.72;3.45;;;25.40;31.80;;;;;;5017751;28;20074;-76
2023/05/14 10:53:40;;;;;;;10.18;3.55;;;25.40;32.40;;;;;;5018134;28;20096;-76
2023/05/14 10:56:12;;;;;;;4.38;3.25;;;25.30;32.10;;;;;;5010154;28;20141;-76
2023/05/14 10:58:43;;;;;;;4.43;3.00;;;25.40;33.00;;;;;;4996119;28;20057;-76
2023/05/14 11:01:11;;;;;;;5.82;2.90;;;25.40;32.60;;;;;;5012993;28;20131;-76
2023/05/14 11:03:43;;;;;;;4.35;2.97;;;25.50;36.50;;;;;;5010340;28;20055;-77
2023/05/14 11:06:12;;;;;;;8.90;3.40;;;25.70;32.80;;;;;;5015027;28;20457;-77
2023/05/14 11:08:40;;;;;;;5.53;3.33;;;25.60;32.50;;;;;;5020609;28;20745;-81
2023/05/14 11:11:08;;;;;;;10.50;3.42;;;25.70;33.80;;;;;;5000826;28;20121;-77
2023/05/14 11:13:35;;;;;;;7.43;3.47;;;25.80;34.50;;;;;;5002268;28;20049;-78
2023/05/14 11:16:02;;;;;;;38.53;3.55;;;25.70;33.40;;;;;;5028567;28;20820;-79
2023/05/14 11:18:47;;;;;;;4.97;3.17;;;25.40;32.20;;;;;;5010562;28;20045;-79
2023/05/14 11:21:16;;;;;;;8.70;3.80;;;25.10;34.30;;;;;;5025660;28;20055;-78
2023/05/14 11:23:45;;;;;;;5.97;3.08;;;25.00;34.70;;;;;;5022888;28;20080;-77
2023/05/14 11:26:12;;;;;;;4.90;3.15;;;24.90;34.60;;;;;;5006226;28;20056;-80
2023/05/14 11:28:39;;;;;;;10.73;4.20;;;24.80;35.40;;;;;;5008713;28;20057;-79
2023/05/14 11:31:06;;;;;;;7.55;3.10;;;24.80;34.90;;;;;;5005920;28;20053;-79
2023/05/14 11:33:34;;;;;;;8.73;3.60;;;24.90;35.40;;;;;;5026430;28;20152;-80
2023/05/14 11:36:01;;;;;;;4.97;3.05;;;25.00;35.00;;;;;;5019614;28;20355;-78
2023/05/14 11:38:28;;;;;;;4.38;2.67;;;25.00;36.00;;;;;;5019755;28;20049;-78
2023/05/14 11:40:56;;;;;;;171.98;20.80;;;25.10;36.50;;;;;;5018200;28;20164;-77
2023/05/14 11:43:23;;;;;;;16.67;4.38;;;25.60;36.70;;;;;;5016825;28;20063;-78
2023/05/14 11:45:51;;;;;;;61.15;8.20;;;26.20;36.20;;;;;;5014533;28;20060;-77
2023/05/14 11:48:19;;;;;;;18.85;3.80;;;27.30;35.60;;;;;;5015278;28;20444;-77
2023/05/14 11:50:48;;;;;;;7.60;3.20;;;27.30;33.10;;;;;;5012502;28;20055;-76
2023/05/14 11:53:28;;;;;;;5.32;3.13;;;27.00;32.30;;;;;;4997944;28;20488;-76
2023/05/14 11:55:58;;;;;;;7.78;2.90;;;26.30;32.80;;;;;;5010935;28;20651;-77
2023/05/14 11:58:25;;;;;;;9.00;3.60;;;25.90;32.40;;;;;;5012163;28;20045;-76
2023/05/14 12:00:54;;;;;;;6.00;3.92;;;25.70;33.20;;;;;;5015205;28;20056;-76
2023/05/14 12:03:24;;;;;;;14.38;3.05;;;25.30;33.20;;;;;;5019018;28;20049;-76
2023/05/14 12:05:58;;;;;;;7.30;3.22;;;25.10;34.10;;;;;;5020572;28;20072;-77
2023/05/14 12:08:30;;;;;;;13.38;3.78;;;24.80;34.10;;;;;;5020839;28;20058;-76
2023/05/14 12:10:59;;;;;;;19.23;4.35;;;24.70;34.10;;;;;;5023118;28;20056;-76
2023/05/14 12:13:27;;;;;;;11.95;3.58;;;24.10;34.60;;;;;;5022367;28;20058;-76
2023/05/14 12:15:56;;;;;;;9.55;3.80;;;23.80;34.90;;;;;;5021079;28;20054;-76
2023/05/14 12:18:24;;;;;;;11.85;4.28;;;23.40;36.10;;;;;;4998608;28;20054;-78
2023/05/14 12:20:51;;;;;;;7.13;4.05;;;22.60;39.20;;;;;;5004913;28;20801;-76
2023/05/14 12:23:25;;;;;;;10.38;4.38;;;22.00;44.20;;;;;;4996583;28;20062;-76
2023/05/14 12:25:52;;;;;;;9.52;3.85;;;21.30;44.70;;;;;;5021489;28;20060;-76
2023/05/14 12:28:21;;;;;;;7.10;4.32;;;20.90;45.20;;;;;;5010834;28;20053;-76
2023/05/14 12:30:55;;;;;;;11.60;4.97;;;20.70;44.00;;;;;;5022239;28;20056;-76
2023/05/14 12:33:22;;;;;;;5.80;3.72;;;20.60;44.10;;;;;;5014513;28;20046;-76
2023/05/14 12:35:49;;;;;;;7.28;3.85;;;20.60;45.80;;;;;;5024695;28;20045;-76
2023/05/14 12:38:16;;;;;;;10.02;4.30;;;20.60;43.80;;;;;;5017597;28;20454;-78
2023/05/14 12:40:43;;;;;;;11.52;3.63;;;20.60;45.60;;;;;;5025357;28;20057;-76
2023/05/14 12:43:10;;;;;;;7.22;3.80;;;20.50;45.00;;;;;;5000764;28;20049;-76
2023/05/14 12:45:37;;;;;;;6.93;4.20;;;20.40;44.90;;;;;;5003670;28;20061;-77
2023/05/14 12:48:04;;;;;;;10.07;4.57;;;20.50;49.60;;;;;;5000968;28;20133;-76
2023/05/14 12:50:31;;;;;;;6.05;3.72;;;20.50;48.90;;;;;;5025783;28;20060;-75
2023/05/14 12:52:58;;;;;;;11.80;4.03;;;20.50;46.50;;;;;;5001159;28;20536;-76
2023/05/14 12:55:25;;;;;;;8.80;4.00;;;20.70;45.90;;;;;;5023629;28;20057;-76
2023/05/14 12:57:52;;;;;;;12.20;4.10;;;20.70;46.70;;;;;;5008601;28;20073;-77
2023/05/14 13:00:19;;;;;;;11.48;3.72;;;21.10;44.70;;;;;;5007960;28;20042;-77